sensor_id;sensor_type;location;lat;lon;timestamp;P1;durP1;ratioP1;P2;durP2;ratioP2
74912;SDS011;63878;55.624;37.304;2022-10-16T00:01:27;5.78;;;3.50;;
74912;SDS011;63878;55.624;37.304;2022-10-16T00:03:55;6.13;;;3.40;;
74912;SDS011;63878;55.624;37.304;2022-10-16T00:06:22;8.07;;;4.05;;
74912;SDS011;63878;55.624;37.304;2022-10-16T00:08:49;7.00;;;3.90;;
74912;SDS011;63878;55.624;37.304;2022-10-16T00:11:20;9.40;;;3.95;;
74912;SDS011;63878;55.624;37.304;2022-10-16T00:13:49;4.72;;;3.72;;
74912;SDS011;63878;55.624;37.304;2022-10-16T00:16:16;6.50;;;3.17;;
74912;SDS011;63878;55.624;37.304;2022-10-16T00:18:42;4.03;;;2.40;;
74912;SDS011;63878;55.624;37.304;2022-10-16T00:21:09;5.93;;;3.67;;
74912;SDS011;63878;55.624;37.304;2022-10-16T00:23:43;5.70;;;3.33;;
74912;SDS011;63878;55.624;37.304;2022-10-16T00:26:10;6.80;;;3.53;;
74912;SDS011;63878;55.624;37.304;2022-10-16T00:28:38;5.53;;;3.60;;
74912;SDS011;63878;55.624;37.304;2022-10-16T00:31:06;4.35;;;2.90;;
74912;SDS011;63878;55.624;37.304;2022-10-16T00:33:37;5.80;;;3.88;;
74912;SDS011;63878;55.624;37.304;2022-10-16T00:36:04;7.10;;;3.53;;
74912;SDS011;63878;55.624;37.304;2022-10-16T00:38:31;5.07;;;3.13;;
74912;SDS011;63878;55.624;37.304;2022-10-16T00:40:58;4.97;;;3.33;;
74912;SDS011;63878;55.624;37.304;2022-10-16T00:46:47;6.43;;;3.13;;
74912;SDS011;63878;55.624;37.304;2022-10-16T00:49:09;5.28;;;3.20;;
74912;SDS011;63878;55.624;37.304;2022-10-16T00:51:45;4.72;;;3.13;;
74912;SDS011;63878;55.624;37.304;2022-10-16T00:54:29;4.80;;;2.88;;
74912;SDS011;63878;55.624;37.304;2022-10-16T00:56:57;4.53;;;3.20;;
74912;SDS011;63878;55.624;37.304;2022-10-16T00:59:27;5.28;;;2.75;;
74912;SDS011;63878;55.624;37.304;2022-10-16T01:01:55;4.60;;;2.67;;
74912;SDS011;63878;55.624;37.304;2022-10-16T01:04:22;6.20;;;3.25;;
74912;SDS011;63878;55.624;37.304;2022-10-16T01:07:11;6.22;;;3.78;;
74912;SDS011;63878;55.624;37.304;2022-10-16T01:15:06;5.68;;;3.30;;
74912;SDS011;63878;55.624;37.304;2022-10-16T01:23:05;5.60;;;3.10;;
74912;SDS011;63878;55.624;37.304;2022-10-16T01:28:17;5.00;;;2.80;;
74912;SDS011;63878;55.624;37.304;2022-10-16T01:30:47;4.85;;;2.90;;
74912;SDS011;63878;55.624;37.304;2022-10-16T01:33:17;6.97;;;3.08;;
74912;SDS011;63878;55.624;37.304;2022-10-16T01:35:50;5.78;;;3.25;;
74912;SDS011;63878;55.624;37.304;2022-10-16T01:38:25;5.00;;;3.50;;
74912;SDS011;63878;55.624;37.304;2022-10-16T01:40:58;4.57;;;3.33;;
74912;SDS011;63878;55.624;37.304;2022-10-16T01:43:46;5.68;;;3.20;;
74912;SDS011;63878;55.624;37.304;2022-10-16T01:46:16;5.65;;;3.55;;
74912;SDS011;63878;55.624;37.304;2022-10-16T01:48:44;5.00;;;3.67;;
74912;SDS011;63878;55.624;37.304;2022-10-16T01:51:12;4.82;;;3.17;;
74912;SDS011;63878;55.624;37.304;2022-10-16T01:53:40;5.97;;;3.15;;
74912;SDS011;63878;55.624;37.304;2022-10-16T01:56:09;7.07;;;3.72;;
74912;SDS011;63878;55.624;37.304;2022-10-16T01:58:45;6.28;;;3.53;;
74912;SDS011;63878;55.624;37.304;2022-10-16T02:04:42;6.75;;;3.13;;
74912;SDS011;63878;55.624;37.304;2022-10-16T02:07:11;8.10;;;3.40;;
74912;SDS011;63878;55.624;37.304;2022-10-16T02:09:38;6.13;;;3.70;;
74912;SDS011;63878;55.624;37.304;2022-10-16T02:12:22;5.72;;;3.90;;
74912;SDS011;63878;55.624;37.304;2022-10-16T02:14:52;6.43;;;3.47;;
74912;SDS011;63878;55.624;37.304;2022-10-16T02:17:18;5.95;;;3.15;;
74912;SDS011;63878;55.624;37.304;2022-10-16T02:19:45;6.68;;;4.25;;
74912;SDS011;63878;55.624;37.304;2022-10-16T02:22:15;7.55;;;3.80;;
74912;SDS011;63878;55.624;37.304;2022-10-16T02:32:58;8.50;;;4.20;;
74912;SDS011;63878;55.624;37.304;2022-10-16T02:35:26;6.13;;;3.60;;
74912;SDS011;63878;55.624;37.304;2022-10-16T02:37:52;7.07;;;3.80;;
74912;SDS011;63878;55.624;37.304;2022-10-16T02:40:20;5.30;;;3.22;;
74912;SDS011;63878;55.624;37.304;2022-10-16T02:42:49;4.65;;;3.33;;
74912;SDS011;63878;55.624;37.304;2022-10-16T02:45:16;6.72;;;3.53;;
74912;SDS011;63878;55.624;37.304;2022-10-16T02:47:42;8.45;;;4.10;;
74912;SDS011;63878;55.624;37.304;2022-10-16T02:50:08;5.47;;;3.70;;
74912;SDS011;63878;55.624;37.304;2022-10-16T02:52:34;3.78;;;3.17;;
74912;SDS011;63878;55.624;37.304;2022-10-16T02:55:00;6.15;;;3.47;;
74912;SDS011;63878;55.624;37.304;2022-10-16T02:57:26;6.15;;;3.95;;
74912;SDS011;63878;55.624;37.304;2022-10-16T02:59:52;7.68;;;3.20;;
74912;SDS011;63878;55.624;37.304;2022-10-16T03:02:19;5.30;;;3.40;;
74912;SDS011;63878;55.624;37.304;2022-10-16T03:04:46;5.80;;;3.50;;
74912;SDS011;63878;55.624;37.304;2022-10-16T03:07:11;5.38;;;3.15;;
74912;SDS011;63878;55.624;37.304;2022-10-16T03:09:37;4.68;;;3.28;;
74912;SDS011;63878;55.624;37.304;2022-10-16T03:12:03;7.78;;;3.70;;
74912;SDS011;63878;55.624;37.304;2022-10-16T03:14:29;5.07;;;3.13;;
74912;SDS011;63878;55.624;37.304;2022-10-16T03:16:55;5.20;;;2.97;;
74912;SDS011;63878;55.624;37.304;2022-10-16T03:19:21;4.35;;;3.47;;
74912;SDS011;63878;55.624;37.304;2022-10-16T03:21:47;4.97;;;2.90;;
74912;SDS011;63878;55.624;37.304;2022-10-16T03:24:13;6.07;;;3.53;;
74912;SDS011;63878;55.624;37.304;2022-10-16T03:26:39;4.53;;;3.10;;
74912;SDS011;63878;55.624;37.304;2022-10-16T03:29:05;5.28;;;3.47;;
74912;SDS011;63878;55.624;37.304;2022-10-16T03:31:31;6.15;;;3.75;;
74912;SDS011;63878;55.624;37.304;2022-10-16T03:33:56;4.45;;;3.22;;
74912;SDS011;63878;55.624;37.304;2022-10-16T03:36:22;6.75;;;3.20;;
74912;SDS011;63878;55.624;37.304;2022-10-16T03:38:48;7.00;;;3.25;;
74912;SDS011;63878;55.624;37.304;2022-10-16T03:41:14;4.57;;;3.20;;
74912;SDS011;63878;55.624;37.304;2022-10-16T03:43:40;4.80;;;3.28;;
74912;SDS011;63878;55.624;37.304;2022-10-16T03:46:07;6.68;;;3.53;;
74912;SDS011;63878;55.624;37.304;2022-10-16T03:48:32;8.25;;;3.88;;
74912;SDS011;63878;55.624;37.304;2022-10-16T03:50:58;5.47;;;3.47;;
74912;SDS011;63878;55.624;37.304;2022-10-16T03:53:25;4.93;;;3.30;;
74912;SDS011;63878;55.624;37.304;2022-10-16T03:55:51;6.05;;;3.47;;
74912;SDS011;63878;55.624;37.304;2022-10-16T03:58:17;6.45;;;3.30;;
74912;SDS011;63878;55.624;37.304;2022-10-16T04:00:43;5.55;;;3.20;;
74912;SDS011;63878;55.624;37.304;2022-10-16T04:03:14;6.28;;;4.03;;
74912;SDS011;63878;55.624;37.304;2022-10-16T04:05:39;7.57;;;3.50;;
74912;SDS011;63878;55.624;37.304;2022-10-16T04:08:05;5.25;;;2.90;;
74912;SDS011;63878;55.624;37.304;2022-10-16T04:10:31;5.63;;;3.20;;
74912;SDS011;63878;55.624;37.304;2022-10-16T04:12:57;3.13;;;2.78;;
74912;SDS011;63878;55.624;37.304;2022-10-16T04:15:24;4.13;;;2.70;;
74912;SDS011;63878;55.624;37.304;2022-10-16T04:17:50;6.70;;;2.80;;
74912;SDS011;63878;55.624;37.304;2022-10-16T04:20:17;4.97;;;3.30;;
74912;SDS011;63878;55.624;37.304;2022-10-16T04:22:43;5.75;;;2.97;;
74912;SDS011;63878;55.624;37.304;2022-10-16T04:25:09;5.80;;;3.28;;
74912;SDS011;63878;55.624;37.304;2022-10-16T04:27:36;5.53;;;3.42;;
74912;SDS011;63878;55.624;37.304;2022-10-16T04:30:02;3.42;;;2.85;;
74912;SDS011;63878;55.624;37.304;2022-10-16T04:32:29;5.50;;;3.20;;
74912;SDS011;63878;55.624;37.304;2022-10-16T04:34:54;4.78;;;2.67;;
74912;SDS011;63878;55.624;37.304;2022-10-16T04:37:26;5.25;;;3.20;;
74912;SDS011;63878;55.624;37.304;2022-10-16T04:39:53;5.72;;;3.25;;
74912;SDS011;63878;55.624;37.304;2022-10-16T04:42:19;4.50;;;2.70;;
74912;SDS011;63878;55.624;37.304;2022-10-16T04:44:46;5.18;;;3.55;;
74912;SDS011;63878;55.624;37.304;2022-10-16T04:47:12;4.65;;;3.00;;
74912;SDS011;63878;55.624;37.304;2022-10-16T04:49:39;5.25;;;3.05;;
74912;SDS011;63878;55.624;37.304;2022-10-16T04:52:05;5.82;;;3.42;;
74912;SDS011;63878;55.624;37.304;2022-10-16T04:54:31;5.40;;;3.17;;
74912;SDS011;63878;55.624;37.304;2022-10-16T04:56:57;4.25;;;3.10;;
74912;SDS011;63878;55.624;37.304;2022-10-16T04:59:25;4.43;;;3.00;;
74912;SDS011;63878;55.624;37.304;2022-10-16T05:01:51;7.43;;;3.45;;
74912;SDS011;63878;55.624;37.304;2022-10-16T05:04:18;5.75;;;3.35;;
74912;SDS011;63878;55.624;37.304;2022-10-16T05:06:44;5.20;;;3.58;;
74912;SDS011;63878;55.624;37.304;2022-10-16T05:09:10;7.25;;;3.80;;
74912;SDS011;63878;55.624;37.304;2022-10-16T05:11:36;4.75;;;3.55;;
74912;SDS011;63878;55.624;37.304;2022-10-16T05:14:02;5.20;;;2.97;;
74912;SDS011;63878;55.624;37.304;2022-10-16T05:16:28;4.88;;;3.60;;
74912;SDS011;63878;55.624;37.304;2022-10-16T05:18:54;7.32;;;3.95;;
74912;SDS011;63878;55.624;37.304;2022-10-16T05:21:20;7.53;;;4.18;;
74912;SDS011;63878;55.624;37.304;2022-10-16T05:23:46;4.72;;;3.15;;
74912;SDS011;63878;55.624;37.304;2022-10-16T05:26:12;3.47;;;2.72;;
74912;SDS011;63878;55.624;37.304;2022-10-16T05:28:38;8.07;;;3.80;;
74912;SDS011;63878;55.624;37.304;2022-10-16T05:31:07;7.05;;;4.07;;
74912;SDS011;63878;55.624;37.304;2022-10-16T05:33:34;4.60;;;2.60;;
74912;SDS011;63878;55.624;37.304;2022-10-16T05:36:04;6.38;;;3.40;;
74912;SDS011;63878;55.624;37.304;2022-10-16T05:38:31;5.22;;;2.90;;
74912;SDS011;63878;55.624;37.304;2022-10-16T05:40:57;9.02;;;3.85;;
74912;SDS011;63878;55.624;37.304;2022-10-16T05:43:22;5.93;;;3.25;;
74912;SDS011;63878;55.624;37.304;2022-10-16T05:45:55;5.07;;;2.92;;
74912;SDS011;63878;55.624;37.304;2022-10-16T05:48:31;7.15;;;2.90;;
74912;SDS011;63878;55.624;37.304;2022-10-16T05:51:02;7.50;;;3.92;;
74912;SDS011;63878;55.624;37.304;2022-10-16T05:53:30;9.10;;;3.70;;
74912;SDS011;63878;55.624;37.304;2022-10-16T05:55:56;5.15;;;3.38;;
74912;SDS011;63878;55.624;37.304;2022-10-16T05:58:23;6.28;;;2.92;;
74912;SDS011;63878;55.624;37.304;2022-10-16T06:00:54;5.93;;;3.80;;
74912;SDS011;63878;55.624;37.304;2022-10-16T06:03:24;7.07;;;3.67;;
74912;SDS011;63878;55.624;37.304;2022-10-16T06:05:50;3.40;;;2.28;;
74912;SDS011;63878;55.624;37.304;2022-10-16T06:08:16;4.47;;;3.05;;
74912;SDS011;63878;55.624;37.304;2022-10-16T06:10:43;5.00;;;2.85;;
74912;SDS011;63878;55.624;37.304;2022-10-16T06:13:09;3.55;;;1.92;;
74912;SDS011;63878;55.624;37.304;2022-10-16T06:15:35;3.22;;;1.92;;
74912;SDS011;63878;55.624;37.304;2022-10-16T06:18:01;7.25;;;3.53;;
74912;SDS011;63878;55.624;37.304;2022-10-16T06:20:27;8.27;;;3.50;;
74912;SDS011;63878;55.624;37.304;2022-10-16T06:22:53;5.45;;;2.80;;
74912;SDS011;63878;55.624;37.304;2022-10-16T06:25:19;4.53;;;2.60;;
74912;SDS011;63878;55.624;37.304;2022-10-16T06:27:45;4.55;;;2.83;;
74912;SDS011;63878;55.624;37.304;2022-10-16T06:30:11;5.78;;;2.50;;
74912;SDS011;63878;55.624;37.304;2022-10-16T06:32:37;5.35;;;2.70;;
74912;SDS011;63878;55.624;37.304;2022-10-16T06:35:03;6.10;;;2.28;;
74912;SDS011;63878;55.624;37.304;2022-10-16T06:37:30;4.10;;;1.83;;
74912;SDS011;63878;55.624;37.304;2022-10-16T06:39:55;3.78;;;2.20;;
74912;SDS011;63878;55.624;37.304;2022-10-16T06:42:21;2.83;;;2.20;;
74912;SDS011;63878;55.624;37.304;2022-10-16T06:44:47;3.42;;;2.28;;
74912;SDS011;63878;55.624;37.304;2022-10-16T06:47:12;2.58;;;1.88;;
74912;SDS011;63878;55.624;37.304;2022-10-16T06:49:38;4.53;;;2.22;;
74912;SDS011;63878;55.624;37.304;2022-10-16T06:52:04;6.15;;;2.88;;
74912;SDS011;63878;55.624;37.304;2022-10-16T06:54:29;3.55;;;2.42;;
74912;SDS011;63878;55.624;37.304;2022-10-16T06:56:55;5.97;;;2.97;;
74912;SDS011;63878;55.624;37.304;2022-10-16T06:59:22;4.18;;;2.92;;
74912;SDS011;63878;55.624;37.304;2022-10-16T07:01:48;5.80;;;3.08;;
74912;SDS011;63878;55.624;37.304;2022-10-16T07:04:13;4.07;;;2.38;;
74912;SDS011;63878;55.624;37.304;2022-10-16T07:06:40;3.60;;;2.25;;
74912;SDS011;63878;55.624;37.304;2022-10-16T07:09:07;3.05;;;2.05;;
74912;SDS011;63878;55.624;37.304;2022-10-16T07:11:36;4.03;;;1.75;;
74912;SDS011;63878;55.624;37.304;2022-10-16T07:14:02;2.90;;;1.75;;
74912;SDS011;63878;55.624;37.304;2022-10-16T07:16:29;3.35;;;1.70;;
74912;SDS011;63878;55.624;37.304;2022-10-16T07:18:59;2.63;;;1.77;;
74912;SDS011;63878;55.624;37.304;2022-10-16T07:21:28;3.35;;;1.98;;
74912;SDS011;63878;55.624;37.304;2022-10-16T07:23:58;6.40;;;2.28;;
74912;SDS011;63878;55.624;37.304;2022-10-16T07:26:25;2.85;;;1.73;;
74912;SDS011;63878;55.624;37.304;2022-10-16T07:28:51;3.67;;;2.30;;
74912;SDS011;63878;55.624;37.304;2022-10-16T07:31:17;3.05;;;1.80;;
74912;SDS011;63878;55.624;37.304;2022-10-16T07:33:45;3.92;;;2.38;;
74912;SDS011;63878;55.624;37.304;2022-10-16T07:36:12;5.85;;;2.30;;
74912;SDS011;63878;55.624;37.304;2022-10-16T07:38:37;3.72;;;2.08;;
74912;SDS011;63878;55.624;37.304;2022-10-16T07:41:07;2.45;;;1.70;;
74912;SDS011;63878;55.624;37.304;2022-10-16T07:43:34;5.03;;;2.70;;
74912;SDS011;63878;55.624;37.304;2022-10-16T07:46:00;26.52;;;18.00;;
74912;SDS011;63878;55.624;37.304;2022-10-16T07:48:29;28.00;;;18.75;;
74912;SDS011;63878;55.624;37.304;2022-10-16T07:51:06;136.48;;;97.20;;
74912;SDS011;63878;55.624;37.304;2022-10-16T07:53:33;73.93;;;51.00;;
74912;SDS011;63878;55.624;37.304;2022-10-16T07:56:02;37.40;;;26.08;;
74912;SDS011;63878;55.624;37.304;2022-10-16T07:58:30;27.42;;;15.80;;
74912;SDS011;63878;55.624;37.304;2022-10-16T08:00:56;21.67;;;15.93;;
74912;SDS011;63878;55.624;37.304;2022-10-16T08:03:22;14.10;;;9.88;;
74912;SDS011;63878;55.624;37.304;2022-10-16T08:05:48;10.65;;;7.90;;
74912;SDS011;63878;55.624;37.304;2022-10-16T08:08:15;7.70;;;5.57;;
74912;SDS011;63878;55.624;37.304;2022-10-16T08:10:42;10.88;;;5.07;;
74912;SDS011;63878;55.624;37.304;2022-10-16T08:13:08;7.75;;;4.07;;
74912;SDS011;63878;55.624;37.304;2022-10-16T08:15:34;7.28;;;3.83;;
74912;SDS011;63878;55.624;37.304;2022-10-16T08:18:03;5.85;;;3.58;;
74912;SDS011;63878;55.624;37.304;2022-10-16T08:22:56;7.72;;;2.95;;
74912;SDS011;63878;55.624;37.304;2022-10-16T08:25:22;8.55;;;2.83;;
74912;SDS011;63878;55.624;37.304;2022-10-16T08:27:49;4.55;;;2.50;;
74912;SDS011;63878;55.624;37.304;2022-10-16T08:30:16;4.13;;;2.25;;
74912;SDS011;63878;55.624;37.304;2022-10-16T08:32:43;5.07;;;2.13;;
74912;SDS011;63878;55.624;37.304;2022-10-16T08:35:09;6.05;;;2.67;;
74912;SDS011;63878;55.624;37.304;2022-10-16T08:37:36;5.50;;;2.15;;
74912;SDS011;63878;55.624;37.304;2022-10-16T08:40:03;3.45;;;2.05;;
74912;SDS011;63878;55.624;37.304;2022-10-16T08:45:19;5.43;;;2.72;;
74912;SDS011;63878;55.624;37.304;2022-10-16T08:48:11;4.10;;;1.90;;
74912;SDS011;63878;55.624;37.304;2022-10-16T08:50:45;5.30;;;2.55;;
74912;SDS011;63878;55.624;37.304;2022-10-16T08:53:15;5.28;;;2.50;;
74912;SDS011;63878;55.624;37.304;2022-10-16T08:55:51;5.20;;;2.55;;
74912;SDS011;63878;55.624;37.304;2022-10-16T08:58:19;5.20;;;2.97;;
74912;SDS011;63878;55.624;37.304;2022-10-16T09:01:35;5.05;;;2.47;;
74912;SDS011;63878;55.624;37.304;2022-10-16T09:12:22;3.97;;;2.10;;
74912;SDS011;63878;55.624;37.304;2022-10-16T09:15:32;5.10;;;2.17;;
74912;SDS011;63878;55.624;37.304;2022-10-16T09:18:02;3.95;;;2.10;;
74912;SDS011;63878;55.624;37.304;2022-10-16T09:20:34;6.03;;;2.10;;
74912;SDS011;63878;55.624;37.304;2022-10-16T09:23:14;5.78;;;2.78;;
74912;SDS011;63878;55.624;37.304;2022-10-16T09:25:44;3.85;;;2.00;;
74912;SDS011;63878;55.624;37.304;2022-10-16T09:28:11;3.92;;;2.30;;
74912;SDS011;63878;55.624;37.304;2022-10-16T09:30:37;3.42;;;1.85;;
74912;SDS011;63878;55.624;37.304;2022-10-16T09:33:03;8.85;;;3.25;;
74912;SDS011;63878;55.624;37.304;2022-10-16T09:35:40;4.95;;;3.00;;
74912;SDS011;63878;55.624;37.304;2022-10-16T09:38:28;8.10;;;3.20;;
74912;SDS011;63878;55.624;37.304;2022-10-16T09:40:57;5.97;;;2.58;;
74912;SDS011;63878;55.624;37.304;2022-10-16T09:46:05;4.70;;;2.35;;
74912;SDS011;63878;55.624;37.304;2022-10-16T09:51:13;4.60;;;2.40;;
74912;SDS011;63878;55.624;37.304;2022-10-16T09:53:46;3.95;;;2.35;;
74912;SDS011;63878;55.624;37.304;2022-10-16T09:56:27;6.35;;;2.75;;
74912;SDS011;63878;55.624;37.304;2022-10-16T09:58:58;5.70;;;3.05;;
74912;SDS011;63878;55.624;37.304;2022-10-16T10:01:35;6.50;;;2.97;;
74912;SDS011;63878;55.624;37.304;2022-10-16T10:04:03;5.93;;;2.78;;
74912;SDS011;63878;55.624;37.304;2022-10-16T10:06:36;3.55;;;2.67;;
74912;SDS011;63878;55.624;37.304;2022-10-16T10:11:49;4.85;;;2.63;;
74912;SDS011;63878;55.624;37.304;2022-10-16T10:17:11;6.20;;;3.10;;
74912;SDS011;63878;55.624;37.304;2022-10-16T10:24:59;7.20;;;3.97;;
74912;SDS011;63878;55.624;37.304;2022-10-16T10:46:57;3.10;;;1.92;;
74912;SDS011;63878;55.624;37.304;2022-10-16T11:06:47;1.10;;;0.98;;
74912;SDS011;63878;55.624;37.304;2022-10-16T11:09:24;1.77;;;1.63;;
74912;SDS011;63878;55.624;37.304;2022-10-16T11:14:33;6.32;;;2.67;;
74912;SDS011;63878;55.624;37.304;2022-10-16T11:17:48;5.25;;;2.83;;
74912;SDS011;63878;55.624;37.304;2022-10-16T11:20:17;5.07;;;3.10;;
74912;SDS011;63878;55.624;37.304;2022-10-16T11:22:54;6.13;;;2.92;;
74912;SDS011;63878;55.624;37.304;2022-10-16T11:25:24;6.03;;;2.55;;
74912;SDS011;63878;55.624;37.304;2022-10-16T11:30:43;3.75;;;2.45;;
74912;SDS011;63878;55.624;37.304;2022-10-16T11:33:27;4.03;;;2.40;;
74912;SDS011;63878;55.624;37.304;2022-10-16T11:39:00;3.65;;;1.75;;
74912;SDS011;63878;55.624;37.304;2022-10-16T11:41:50;3.15;;;1.17;;
74912;SDS011;63878;55.624;37.304;2022-10-16T11:44:20;4.30;;;2.25;;
74912;SDS011;63878;55.624;37.304;2022-10-16T11:47:24;4.88;;;2.50;;
74912;SDS011;63878;55.624;37.304;2022-10-16T11:49:58;1.77;;;1.17;;
74912;SDS011;63878;55.624;37.304;2022-10-16T11:57:58;6.07;;;2.58;;
74912;SDS011;63878;55.624;37.304;2022-10-16T12:00:37;2.80;;;2.10;;
74912;SDS011;63878;55.624;37.304;2022-10-16T12:05:51;3.75;;;2.55;;
74912;SDS011;63878;55.624;37.304;2022-10-16T12:08:23;3.97;;;2.33;;
74912;SDS011;63878;55.624;37.304;2022-10-16T12:10:52;6.20;;;2.83;;
74912;SDS011;63878;55.624;37.304;2022-10-16T12:13:32;8.73;;;3.10;;
74912;SDS011;63878;55.624;37.304;2022-10-16T12:18:37;7.63;;;5.93;;
74912;SDS011;63878;55.624;37.304;2022-10-16T12:21:04;5.50;;;3.00;;
74912;SDS011;63878;55.624;37.304;2022-10-16T12:23:30;7.18;;;2.65;;
74912;SDS011;63878;55.624;37.304;2022-10-16T12:25:58;8.75;;;6.32;;
74912;SDS011;63878;55.624;37.304;2022-10-16T12:28:27;6.45;;;3.25;;
74912;SDS011;63878;55.624;37.304;2022-10-16T12:31:01;5.97;;;3.53;;
74912;SDS011;63878;55.624;37.304;2022-10-16T12:33:39;4.65;;;3.22;;
74912;SDS011;63878;55.624;37.304;2022-10-16T12:36:14;6.15;;;3.38;;
74912;SDS011;63878;55.624;37.304;2022-10-16T12:38:50;4.88;;;2.58;;
74912;SDS011;63878;55.624;37.304;2022-10-16T12:41:31;5.38;;;2.90;;
74912;SDS011;63878;55.624;37.304;2022-10-16T12:44:20;9.65;;;3.40;;
74912;SDS011;63878;55.624;37.304;2022-10-16T12:46:48;8.35;;;6.30;;
74912;SDS011;63878;55.624;37.304;2022-10-16T12:51:40;4.68;;;2.47;;
74912;SDS011;63878;55.624;37.304;2022-10-16T12:56:58;4.85;;;3.05;;
74912;SDS011;63878;55.624;37.304;2022-10-16T13:02:18;9.38;;;3.65;;
74912;SDS011;63878;55.624;37.304;2022-10-16T13:10:28;7.53;;;3.97;;
74912;SDS011;63878;55.624;37.304;2022-10-16T13:13:46;5.57;;;3.40;;
74912;SDS011;63878;55.624;37.304;2022-10-16T13:27:50;7.50;;;4.50;;
74912;SDS011;63878;55.624;37.304;2022-10-16T13:30:26;8.45;;;6.35;;
74912;SDS011;63878;55.624;37.304;2022-10-16T13:33:36;9.15;;;5.03;;
74912;SDS011;63878;55.624;37.304;2022-10-16T13:35:50;13.02;;;8.40;;
74912;SDS011;63878;55.624;37.304;2022-10-16T13:38:18;10.65;;;7.03;;
74912;SDS011;63878;55.624;37.304;2022-10-16T13:40:49;10.18;;;6.30;;
74912;SDS011;63878;55.624;37.304;2022-10-16T13:43:19;5.70;;;3.33;;
74912;SDS011;63878;55.624;37.304;2022-10-16T13:48:28;6.88;;;4.75;;
74912;SDS011;63878;55.624;37.304;2022-10-16T13:50:59;8.50;;;3.95;;
74912;SDS011;63878;55.624;37.304;2022-10-16T13:53:24;8.27;;;4.38;;
74912;SDS011;63878;55.624;37.304;2022-10-16T13:55:50;8.13;;;3.80;;
74912;SDS011;63878;55.624;37.304;2022-10-16T13:58:16;5.45;;;3.35;;
74912;SDS011;63878;55.624;37.304;2022-10-16T14:03:30;6.78;;;2.92;;
74912;SDS011;63878;55.624;37.304;2022-10-16T14:06:00;3.33;;;2.90;;
74912;SDS011;63878;55.624;37.304;2022-10-16T14:08:28;6.43;;;2.95;;
74912;SDS011;63878;55.624;37.304;2022-10-16T14:10:56;4.47;;;3.10;;
74912;SDS011;63878;55.624;37.304;2022-10-16T14:13:27;9.75;;;3.45;;
74912;SDS011;63878;55.624;37.304;2022-10-16T14:16:07;5.95;;;3.13;;
74912;SDS011;63878;55.624;37.304;2022-10-16T14:18:36;6.28;;;3.20;;
74912;SDS011;63878;55.624;37.304;2022-10-16T14:21:04;12.00;;;3.55;;
74912;SDS011;63878;55.624;37.304;2022-10-16T14:23:38;8.60;;;4.30;;
74912;SDS011;63878;55.624;37.304;2022-10-16T14:26:15;6.57;;;3.63;;
74912;SDS011;63878;55.624;37.304;2022-10-16T14:28:44;5.68;;;3.00;;
74912;SDS011;63878;55.624;37.304;2022-10-16T14:31:53;5.70;;;2.78;;
74912;SDS011;63878;55.624;37.304;2022-10-16T14:34:03;5.85;;;3.45;;
74912;SDS011;63878;55.624;37.304;2022-10-16T14:36:29;5.53;;;3.13;;
74912;SDS011;63878;55.624;37.304;2022-10-16T14:41:30;4.25;;;2.83;;
74912;SDS011;63878;55.624;37.304;2022-10-16T14:44:06;4.40;;;3.00;;
74912;SDS011;63878;55.624;37.304;2022-10-16T14:46:36;4.85;;;2.33;;
74912;SDS011;63878;55.624;37.304;2022-10-16T14:51:35;6.20;;;3.03;;
74912;SDS011;63878;55.624;37.304;2022-10-16T14:54:04;5.25;;;2.75;;
74912;SDS011;63878;55.624;37.304;2022-10-16T14:56:44;6.22;;;2.42;;
74912;SDS011;63878;55.624;37.304;2022-10-16T15:04:50;9.73;;;3.03;;
74912;SDS011;63878;55.624;37.304;2022-10-16T15:07:16;4.95;;;3.15;;
74912;SDS011;63878;55.624;37.304;2022-10-16T15:09:42;6.78;;;2.97;;
74912;SDS011;63878;55.624;37.304;2022-10-16T15:12:08;5.60;;;3.17;;
74912;SDS011;63878;55.624;37.304;2022-10-16T15:14:33;14.75;;;7.50;;
74912;SDS011;63878;55.624;37.304;2022-10-16T15:16:59;5.95;;;3.63;;
74912;SDS011;63878;55.624;37.304;2022-10-16T15:19:25;12.15;;;7.30;;
74912;SDS011;63878;55.624;37.304;2022-10-16T15:21:50;6.43;;;5.35;;
74912;SDS011;63878;55.624;37.304;2022-10-16T15:24:18;7.45;;;3.70;;
74912;SDS011;63878;55.624;37.304;2022-10-16T15:26:44;7.00;;;3.22;;
74912;SDS011;63878;55.624;37.304;2022-10-16T15:29:10;6.30;;;3.42;;
74912;SDS011;63878;55.624;37.304;2022-10-16T15:31:36;8.07;;;4.80;;
74912;SDS011;63878;55.624;37.304;2022-10-16T15:34:02;12.23;;;6.10;;
74912;SDS011;63878;55.624;37.304;2022-10-16T15:36:28;6.82;;;4.03;;
74912;SDS011;63878;55.624;37.304;2022-10-16T15:38:59;7.35;;;4.13;;
74912;SDS011;63878;55.624;37.304;2022-10-16T15:41:25;10.13;;;5.10;;
74912;SDS011;63878;55.624;37.304;2022-10-16T15:43:51;7.82;;;5.05;;
74912;SDS011;63878;55.624;37.304;2022-10-16T15:46:18;9.40;;;5.18;;
74912;SDS011;63878;55.624;37.304;2022-10-16T15:48:45;10.10;;;5.68;;
74912;SDS011;63878;55.624;37.304;2022-10-16T15:51:11;10.70;;;5.35;;
74912;SDS011;63878;55.624;37.304;2022-10-16T15:53:37;32.92;;;13.02;;
74912;SDS011;63878;55.624;37.304;2022-10-16T15:56:03;10.25;;;5.18;;
74912;SDS011;63878;55.624;37.304;2022-10-16T15:58:29;12.02;;;5.30;;
74912;SDS011;63878;55.624;37.304;2022-10-16T16:00:55;12.52;;;6.15;;
74912;SDS011;63878;55.624;37.304;2022-10-16T16:03:22;15.18;;;6.10;;
74912;SDS011;63878;55.624;37.304;2022-10-16T16:05:47;42.03;;;13.95;;
74912;SDS011;63878;55.624;37.304;2022-10-16T16:08:14;16.30;;;7.55;;
74912;SDS011;63878;55.624;37.304;2022-10-16T16:10:40;13.40;;;5.47;;
74912;SDS011;63878;55.624;37.304;2022-10-16T16:13:05;11.20;;;5.43;;
74912;SDS011;63878;55.624;37.304;2022-10-16T16:15:31;10.40;;;4.93;;
74912;SDS011;63878;55.624;37.304;2022-10-16T16:17:57;8.23;;;4.80;;
74912;SDS011;63878;55.624;37.304;2022-10-16T16:20:23;10.70;;;5.43;;
74912;SDS011;63878;55.624;37.304;2022-10-16T16:22:49;22.52;;;12.65;;
74912;SDS011;63878;55.624;37.304;2022-10-16T16:25:15;10.10;;;6.10;;
74912;SDS011;63878;55.624;37.304;2022-10-16T16:27:40;10.23;;;4.50;;
74912;SDS011;63878;55.624;37.304;2022-10-16T16:30:07;23.30;;;8.45;;
74912;SDS011;63878;55.624;37.304;2022-10-16T16:32:35;12.57;;;4.55;;
74912;SDS011;63878;55.624;37.304;2022-10-16T16:35:02;11.93;;;5.13;;
74912;SDS011;63878;55.624;37.304;2022-10-16T16:37:28;13.73;;;8.07;;
74912;SDS011;63878;55.624;37.304;2022-10-16T16:39:54;24.65;;;9.13;;
74912;SDS011;63878;55.624;37.304;2022-10-16T16:42:20;14.18;;;6.47;;
74912;SDS011;63878;55.624;37.304;2022-10-16T16:44:47;7.40;;;4.78;;
74912;SDS011;63878;55.624;37.304;2022-10-16T16:47:13;8.70;;;5.38;;
74912;SDS011;63878;55.624;37.304;2022-10-16T16:49:39;9.23;;;4.72;;
74912;SDS011;63878;55.624;37.304;2022-10-16T16:52:04;6.88;;;4.03;;
74912;SDS011;63878;55.624;37.304;2022-10-16T16:54:30;11.73;;;4.57;;
74912;SDS011;63878;55.624;37.304;2022-10-16T16:56:56;7.82;;;4.57;;
74912;SDS011;63878;55.624;37.304;2022-10-16T16:59:21;8.38;;;4.55;;
74912;SDS011;63878;55.624;37.304;2022-10-16T17:01:47;13.88;;;4.65;;
74912;SDS011;63878;55.624;37.304;2022-10-16T17:04:14;8.50;;;4.38;;
74912;SDS011;63878;55.624;37.304;2022-10-16T17:06:40;7.78;;;4.38;;
74912;SDS011;63878;55.624;37.304;2022-10-16T17:09:06;7.03;;;4.38;;
74912;SDS011;63878;55.624;37.304;2022-10-16T17:11:33;7.97;;;4.38;;
74912;SDS011;63878;55.624;37.304;2022-10-16T17:13:59;6.13;;;4.68;;
74912;SDS011;63878;55.624;37.304;2022-10-16T17:16:28;6.28;;;3.80;;
74912;SDS011;63878;55.624;37.304;2022-10-16T17:23:50;10.75;;;4.78;;
74912;SDS011;63878;55.624;37.304;2022-10-16T17:26:16;4.95;;;4.03;;